sensor_id;sensor_type;location;lat;lon;timestamp;pressure;altitude;pressure_sealevel;temperature;humidity
51099;BME280;37146;48.210;16.234;2023-05-29T00:01:33;98853.13;;;10.35;100.00
51099;BME280;37146;48.210;16.234;2023-05-29T00:03:59;98854.06;;;10.17;100.00
51099;BME280;37146;48.210;16.234;2023-05-29T00:06:24;98849.63;;;10.17;100.00
51099;BME280;37146;48.210;16.234;2023-05-29T00:08:49;98851.09;;;10.41;100.00
51099;BME280;37146;48.210;16.234;2023-05-29T00:11:15;98856.44;;;10.41;100.00
51099;BME280;37146;48.210;16.234;2023-05-29T00:13:40;98842.59;;;10.15;100.00
51099;BME280;37146;48.210;16.234;2023-05-29T00:16:05;98853.78;;;10.23;100.00
51099;BME280;37146;48.210;16.234;2023-05-29T00:18:31;98853.28;;;10.32;100.00
51099;BME280;37146;48.210;16.234;2023-05-29T00:20:56;98857.47;;;10.03;100.00
51099;BME280;37146;48.210;16.234;2023-05-29T00:23:21;98850.16;;;10.06;100.00
51099;BME280;37146;48.210;16.234;2023-05-29T00:25:46;98851.91;;;10.08;100.00
51099;BME280;37146;48.210;16.234;2023-05-29T00:28:12;98850.47;;;10.18;100.00
51099;BME280;37146;48.210;16.234;2023-05-29T00:30:38;98848.72;;;10.17;100.00
51099;BME280;37146;48.210;16.234;2023-05-29T00:33:03;98849.13;;;10.09;100.00
51099;BME280;37146;48.210;16.234;2023-05-29T00:35:28;98841.84;;;10.13;100.00
51099;BME280;37146;48.210;16.234;2023-05-29T00:37:53;98843.41;;;9.99;100.00
51099;BME280;37146;48.210;16.234;2023-05-29T00:40:19;98845.63;;;9.91;100.00
51099;BME280;37146;48.210;16.234;2023-05-29T00:42:44;98844.69;;;9.92;100.00
51099;BME280;37146;48.210;16.234;2023-05-29T00:45:09;98841.06;;;9.75;100.00
51099;BME280;37146;48.210;16.234;2023-05-29T00:47:35;98843.75;;;9.75;100.00
51099;BME280;37146;48.210;16.234;2023-05-29T00:50:01;98841.72;;;9.81;100.00
51099;BME280;37146;48.210;16.234;2023-05-29T00:52:26;98841.38;;;9.87;100.00
51099;BME280;37146;48.210;16.234;2023-05-29T00:54:52;98842.16;;;9.71;100.00
51099;BME280;37146;48.210;16.234;2023-05-29T00:57:17;98841.53;;;9.84;100.00
51099;BME280;37146;48.210;16.234;2023-05-29T00:59:44;98839.34;;;9.92;100.00
51099;BME280;37146;48.210;16.234;2023-05-29T01:02:10;98835.03;;;9.72;100.00
51099;BME280;37146;48.210;16.234;2023-05-29T01:04:35;98834.47;;;9.83;100.00
51099;BME280;37146;48.210;16.234;2023-05-29T01:07:01;98834.88;;;9.75;100.00
51099;BME280;37146;48.210;16.234;2023-05-29T01:09:30;98828.75;;;9.73;100.00
51099;BME280;37146;48.210;16.234;2023-05-29T01:15:01;98832.09;;;9.94;100.00
51099;BME280;37146;48.210;16.234;2023-05-29T01:17:37;98839.34;;;9.57;100.00
51099;BME280;37146;48.210;16.234;2023-05-29T01:20:16;98833.34;;;9.52;100.00
51099;BME280;37146;48.210;16.234;2023-05-29T01:23:03;98834.53;;;9.46;100.00
51099;BME280;37146;48.210;16.234;2023-05-29T01:28:08;98841.81;;;9.42;100.00
51099;BME280;37146;48.210;16.234;2023-05-29T01:30:35;98835.22;;;9.32;100.00
51099;BME280;37146;48.210;16.234;2023-05-29T01:33:01;98840.13;;;9.22;100.00
51099;BME280;37146;48.210;16.234;2023-05-29T01:35:27;98831.72;;;9.67;100.00
51099;BME280;37146;48.210;16.234;2023-05-29T01:37:53;98830.63;;;9.71;100.00
51099;BME280;37146;48.210;16.234;2023-05-29T01:40:18;98826.94;;;9.56;100.00
51099;BME280;37146;48.210;16.234;2023-05-29T01:42:43;98824.72;;;9.47;100.00
51099;BME280;37146;48.210;16.234;2023-05-29T01:45:09;98822.50;;;9.37;100.00
51099;BME280;37146;48.210;16.234;2023-05-29T01:47:35;98825.16;;;9.20;100.00
51099;BME280;37146;48.210;16.234;2023-05-29T01:50:00;98825.16;;;9.20;100.00
51099;BME280;37146;48.210;16.234;2023-05-29T01:52:28;98826.56;;;9.27;100.00
51099;BME280;37146;48.210;16.234;2023-05-29T01:54:53;98833.38;;;9.15;100.00
51099;BME280;37146;48.210;16.234;2023-05-29T01:57:18;98830.47;;;9.20;100.00
51099;BME280;37146;48.210;16.234;2023-05-29T01:59:45;98830.63;;;9.17;100.00
51099;BME280;37146;48.210;16.234;2023-05-29T02:02:10;98833.75;;;9.07;100.00
51099;BME280;37146;48.210;16.234;2023-05-29T02:04:37;98829.22;;;9.09;100.00
51099;BME280;37146;48.210;16.234;2023-05-29T02:07:03;98835.38;;;9.10;100.00
51099;BME280;37146;48.210;16.234;2023-05-29T02:09:28;98830.22;;;9.07;100.00
51099;BME280;37146;48.210;16.234;2023-05-29T02:11:54;98822.38;;;9.04;100.00
51099;BME280;37146;48.210;16.234;2023-05-29T02:14:19;98824.19;;;9.03;100.00
51099;BME280;37146;48.210;16.234;2023-05-29T02:16:44;98815.06;;;9.07;100.00
51099;BME280;37146;48.210;16.234;2023-05-29T02:19:10;98825.84;;;8.87;100.00
51099;BME280;37146;48.210;16.234;2023-05-29T02:21:37;98826.72;;;8.68;100.00
51099;BME280;37146;48.210;16.234;2023-05-29T02:24:03;98830.47;;;8.64;100.00
51099;BME280;37146;48.210;16.234;2023-05-29T02:26:28;98825.75;;;8.88;100.00
51099;BME280;37146;48.210;16.234;2023-05-29T02:28:53;98817.41;;;8.96;100.00
51099;BME280;37146;48.210;16.234;2023-05-29T02:31:18;98821.16;;;8.92;100.00
51099;BME280;37146;48.210;16.234;2023-05-29T02:33:43;98819.44;;;8.91;100.00
51099;BME280;37146;48.210;16.234;2023-05-29T02:36:09;98823.97;;;8.89;100.00
51099;BME280;37146;48.210;16.234;2023-05-29T02:38:36;98813.94;;;8.94;100.00
51099;BME280;37146;48.210;16.234;2023-05-29T02:41:01;98805.16;;;8.92;100.00
51099;BME280;37146;48.210;16.234;2023-05-29T02:43:27;98812.38;;;8.71;100.00
51099;BME280;37146;48.210;16.234;2023-05-29T02:45:58;98812.72;;;8.63;100.00
51099;BME280;37146;48.210;16.234;2023-05-29T02:48:23;98813.06;;;8.36;100.00
51099;BME280;37146;48.210;16.234;2023-05-29T02:50:48;98806.50;;;8.43;100.00
51099;BME280;37146;48.210;16.234;2023-05-29T02:53:13;98810.81;;;8.46;100.00
51099;BME280;37146;48.210;16.234;2023-05-29T02:55:38;98812.63;;;8.45;100.00
51099;BME280;37146;48.210;16.234;2023-05-29T02:58:04;98814.63;;;8.40;100.00
51099;BME280;37146;48.210;16.234;2023-05-29T03:00:30;98807.56;;;8.39;100.00
51099;BME280;37146;48.210;16.234;2023-05-29T03:02:55;98811.03;;;8.41;100.00
51099;BME280;37146;48.210;16.234;2023-05-29T03:05:20;98811.16;;;8.38;100.00
51099;BME280;37146;48.210;16.234;2023-05-29T03:07:46;98819.81;;;8.43;100.00
51099;BME280;37146;48.210;16.234;2023-05-29T03:10:11;98816.91;;;8.29;100.00
51099;BME280;37146;48.210;16.234;2023-05-29T03:12:38;98816.16;;;8.27;100.00
51099;BME280;37146;48.210;16.234;2023-05-29T03:15:04;98813.91;;;8.36;100.00
51099;BME280;37146;48.210;16.234;2023-05-29T03:17:30;98804.59;;;8.26;100.00
51099;BME280;37146;48.210;16.234;2023-05-29T03:19:55;98805.41;;;8.28;100.00
51099;BME280;37146;48.210;16.234;2023-05-29T03:22:20;98808.94;;;8.29;100.00
51099;BME280;37146;48.210;16.234;2023-05-29T03:24:45;98806.44;;;8.26;100.00
51099;BME280;37146;48.210;16.234;2023-05-29T03:27:11;98814.72;;;8.39;100.00
51099;BME280;37146;48.210;16.234;2023-05-29T03:29:36;98808.78;;;8.32;100.00
51099;BME280;37146;48.210;16.234;2023-05-29T03:32:01;98809.50;;;8.35;100.00
51099;BME280;37146;48.210;16.234;2023-05-29T03:34:27;98812.38;;;8.31;100.00
51099;BME280;37146;48.210;16.234;2023-05-29T03:36:52;98814.38;;;8.65;100.00
51099;BME280;37146;48.210;16.234;2023-05-29T03:39:18;98813.09;;;8.74;100.00
51099;BME280;37146;48.210;16.234;2023-05-29T03:41:43;98801.97;;;8.84;100.00
51099;BME280;37146;48.210;16.234;2023-05-29T03:44:08;98812.94;;;8.77;100.00
51099;BME280;37146;48.210;16.234;2023-05-29T03:46:34;98806.81;;;8.94;100.00
51099;BME280;37146;48.210;16.234;2023-05-29T03:49:00;98815.97;;;8.89;100.00
51099;BME280;37146;48.210;16.234;2023-05-29T03:51:25;98818.41;;;8.93;100.00
51099;BME280;37146;48.210;16.234;2023-05-29T03:53:50;98823.09;;;8.88;100.00
51099;BME280;37146;48.210;16.234;2023-05-29T03:56:15;98825.72;;;8.90;100.00
51099;BME280;37146;48.210;16.234;2023-05-29T03:58:41;98819.47;;;9.08;100.00
51099;BME280;37146;48.210;16.234;2023-05-29T04:01:06;98821.66;;;9.00;100.00
51099;BME280;37146;48.210;16.234;2023-05-29T04:03:31;98831.09;;;8.88;100.00
51099;BME280;37146;48.210;16.234;2023-05-29T04:05:57;98828.28;;;9.10;100.00
51099;BME280;37146;48.210;16.234;2023-05-29T04:08:22;98832.94;;;9.05;100.00
51099;BME280;37146;48.210;16.234;2023-05-29T04:10:48;98835.00;;;9.00;100.00
51099;BME280;37146;48.210;16.234;2023-05-29T04:13:13;98839.56;;;9.16;100.00
51099;BME280;37146;48.210;16.234;2023-05-29T04:15:38;98848.06;;;8.87;100.00
51099;BME280;37146;48.210;16.234;2023-05-29T04:18:04;98846.97;;;8.91;100.00
51099;BME280;37146;48.210;16.234;2023-05-29T04:20:29;98851.88;;;8.81;100.00
51099;BME280;37146;48.210;16.234;2023-05-29T04:22:55;98848.78;;;8.91;100.00
51099;BME280;37146;48.210;16.234;2023-05-29T04:25:20;98843.03;;;9.18;100.00
51099;BME280;37146;48.210;16.234;2023-05-29T04:27:45;98849.91;;;9.04;100.00
51099;BME280;37146;48.210;16.234;2023-05-29T04:30:13;98850.69;;;9.43;100.00
51099;BME280;37146;48.210;16.234;2023-05-29T04:32:39;98853.19;;;9.28;100.00
51099;BME280;37146;48.210;16.234;2023-05-29T04:35:05;98862.28;;;9.05;100.00
51099;BME280;37146;48.210;16.234;2023-05-29T04:37:31;98862.75;;;8.96;100.00
51099;BME280;37146;48.210;16.234;2023-05-29T04:39:56;98868.09;;;9.33;100.00
51099;BME280;37146;48.210;16.234;2023-05-29T04:42:22;98860.28;;;9.47;100.00
51099;BME280;37146;48.210;16.234;2023-05-29T04:44:49;98860.00;;;9.53;100.00
51099;BME280;37146;48.210;16.234;2023-05-29T04:47:15;98870.50;;;9.56;100.00
51099;BME280;37146;48.210;16.234;2023-05-29T04:49:40;98871.84;;;9.48;100.00
51099;BME280;37146;48.210;16.234;2023-05-29T04:52:06;98865.00;;;9.42;100.00
51099;BME280;37146;48.210;16.234;2023-05-29T04:54:31;98877.31;;;9.44;100.00
51099;BME280;37146;48.210;16.234;2023-05-29T04:56:59;98875.22;;;9.69;100.00
51099;BME280;37146;48.210;16.234;2023-05-29T04:59:24;98880.03;;;9.80;100.00
51099;BME280;37146;48.210;16.234;2023-05-29T05:01:49;98880.44;;;9.89;100.00
51099;BME280;37146;48.210;16.234;2023-05-29T05:04:15;98875.16;;;9.88;100.00
51099;BME280;37146;48.210;16.234;2023-05-29T05:06:40;98874.22;;;10.24;100.00
51099;BME280;37146;48.210;16.234;2023-05-29T05:09:05;98880.88;;;10.33;100.00
51099;BME280;37146;48.210;16.234;2023-05-29T05:11:30;98870.16;;;10.33;100.00
51099;BME280;37146;48.210;16.234;2023-05-29T05:13:55;98870.44;;;10.46;100.00
51099;BME280;37146;48.210;16.234;2023-05-29T05:16:21;98874.94;;;10.61;100.00
51099;BME280;37146;48.210;16.234;2023-05-29T05:18:46;98875.34;;;10.54;100.00
51099;BME280;37146;48.210;16.234;2023-05-29T05:21:11;98874.25;;;10.58;100.00
51099;BME280;37146;48.210;16.234;2023-05-29T05:23:36;98884.28;;;10.70;100.00
51099;BME280;37146;48.210;16.234;2023-05-29T05:26:02;98879.97;;;10.67;100.00
51099;BME280;37146;48.210;16.234;2023-05-29T05:28:27;98884.16;;;10.89;100.00
51099;BME280;37146;48.210;16.234;2023-05-29T05:30:52;98879.31;;;10.96;100.00
51099;BME280;37146;48.210;16.234;2023-05-29T05:33:18;98883.28;;;11.05;100.00
51099;BME280;37146;48.210;16.234;2023-05-29T05:35:43;98880.88;;;11.16;100.00
51099;BME280;37146;48.210;16.234;2023-05-29T05:38:08;98885.00;;;11.38;100.00
51099;BME280;37146;48.210;16.234;2023-05-29T05:40:34;98883.09;;;11.56;100.00
51099;BME280;37146;48.210;16.234;2023-05-29T05:42:59;98889.19;;;11.74;100.00
51099;BME280;37146;48.210;16.234;2023-05-29T05:45:24;98893.66;;;11.89;100.00
51099;BME280;37146;48.210;16.234;2023-05-29T05:47:49;98883.94;;;12.03;100.00
51099;BME280;37146;48.210;16.234;2023-05-29T05:50:15;98890.00;;;12.21;100.00
51099;BME280;37146;48.210;16.234;2023-05-29T05:52:40;98880.09;;;12.37;100.00
51099;BME280;37146;48.210;16.234;2023-05-29T05:55:05;98889.00;;;12.52;100.00
51099;BME280;37146;48.210;16.234;2023-05-29T05:57:31;98888.81;;;12.70;100.00
51099;BME280;37146;48.210;16.234;2023-05-29T06:06:12;98894.16;;;13.13;98.48
51099;BME280;37146;48.210;16.234;2023-05-29T06:08:38;98894.78;;;13.32;97.22
51099;BME280;37146;48.210;16.234;2023-05-29T06:11:05;98900.28;;;13.30;95.06
51099;BME280;37146;48.210;16.234;2023-05-29T06:13:30;98901.13;;;13.45;94.90
51099;BME280;37146;48.210;16.234;2023-05-29T06:15:55;98898.69;;;13.55;94.18
51099;BME280;37146;48.210;16.234;2023-05-29T06:18:21;98895.09;;;13.69;91.52
51099;BME280;37146;48.210;16.234;2023-05-29T06:20:46;98895.44;;;13.77;91.17
51099;BME280;37146;48.210;16.234;2023-05-29T06:23:11;98895.56;;;13.88;89.77
51099;BME280;37146;48.210;16.234;2023-05-29T06:25:36;98898.41;;;14.00;88.51
51099;BME280;37146;48.210;16.234;2023-05-29T06:28:02;98898.66;;;14.10;90.16
51099;BME280;37146;48.210;16.234;2023-05-29T06:30:27;98891.88;;;14.17;83.89
51099;BME280;37146;48.210;16.234;2023-05-29T06:32:53;98899.94;;;14.30;84.95
51099;BME280;37146;48.210;16.234;2023-05-29T06:35:18;98903.72;;;14.40;85.38
51099;BME280;37146;48.210;16.234;2023-05-29T06:37:44;98904.50;;;14.29;82.67
51099;BME280;37146;48.210;16.234;2023-05-29T06:40:10;98910.34;;;14.75;80.70
51099;BME280;37146;48.210;16.234;2023-05-29T06:42:36;98909.88;;;14.94;81.96
51099;BME280;37146;48.210;16.234;2023-05-29T06:45:02;98910.84;;;15.06;80.35
51099;BME280;37146;48.210;16.234;2023-05-29T06:47:27;98908.53;;;14.88;80.46
51099;BME280;37146;48.210;16.234;2023-05-29T06:49:52;98915.66;;;15.26;79.74
51099;BME280;37146;48.210;16.234;2023-05-29T06:52:18;98912.28;;;15.36;77.55
51099;BME280;37146;48.210;16.234;2023-05-29T06:54:43;98918.88;;;15.32;76.14
51099;BME280;37146;48.210;16.234;2023-05-29T06:57:08;98921.03;;;15.26;74.59
51099;BME280;37146;48.210;16.234;2023-05-29T06:59:33;98919.03;;;15.54;74.10
51099;BME280;37146;48.210;16.234;2023-05-29T07:01:58;98915.41;;;15.67;74.14
51099;BME280;37146;48.210;16.234;2023-05-29T07:04:24;98916.91;;;15.71;75.44
51099;BME280;37146;48.210;16.234;2023-05-29T07:06:50;98915.94;;;15.72;75.79
51099;BME280;37146;48.210;16.234;2023-05-29T07:09:16;98924.81;;;15.61;74.24
51099;BME280;37146;48.210;16.234;2023-05-29T07:11:41;98921.75;;;15.66;74.44
51099;BME280;37146;48.210;16.234;2023-05-29T07:14:07;98916.53;;;15.88;73.23
51099;BME280;37146;48.210;16.234;2023-05-29T07:16:32;98917.19;;;15.79;71.39
51099;BME280;37146;48.210;16.234;2023-05-29T07:18:57;98921.69;;;15.91;71.34
51099;BME280;37146;48.210;16.234;2023-05-29T07:21:22;98917.03;;;15.94;70.10
51099;BME280;37146;48.210;16.234;2023-05-29T07:23:48;98919.53;;;15.97;72.62
51099;BME280;37146;48.210;16.234;2023-05-29T07:26:13;98915.59;;;16.01;70.09
51099;BME280;37146;48.210;16.234;2023-05-29T07:28:38;98919.31;;;16.11;71.06
51099;BME280;37146;48.210;16.234;2023-05-29T07:31:04;98918.63;;;16.20;69.65
51099;BME280;37146;48.210;16.234;2023-05-29T07:33:29;98924.47;;;16.14;68.64
51099;BME280;37146;48.210;16.234;2023-05-29T07:35:55;98928.81;;;16.28;69.61
51099;BME280;37146;48.210;16.234;2023-05-29T07:38:22;98931.16;;;16.33;71.31
51099;BME280;37146;48.210;16.234;2023-05-29T07:40:48;98932.97;;;16.68;70.22
51099;BME280;37146;48.210;16.234;2023-05-29T07:43:13;98930.88;;;16.72;69.04
51099;BME280;37146;48.210;16.234;2023-05-29T07:45:38;98933.03;;;17.02;67.64
51099;BME280;37146;48.210;16.234;2023-05-29T07:48:04;98934.38;;;16.96;67.24
51099;BME280;37146;48.210;16.234;2023-05-29T07:50:30;98934.31;;;16.74;65.52
51099;BME280;37146;48.210;16.234;2023-05-29T07:52:55;98936.34;;;17.06;68.45
51099;BME280;37146;48.210;16.234;2023-05-29T07:55:21;98930.94;;;17.17;65.49
51099;BME280;37146;48.210;16.234;2023-05-29T07:57:46;98936.94;;;16.98;66.85
51099;BME280;37146;48.210;16.234;2023-05-29T08:00:13;98941.31;;;16.88;66.10
51099;BME280;37146;48.210;16.234;2023-05-29T08:02:39;98935.72;;;17.25;66.69
51099;BME280;37146;48.210;16.234;2023-05-29T08:05:05;98941.63;;;17.30;65.90
51099;BME280;37146;48.210;16.234;2023-05-29T08:07:32;98934.97;;;17.23;66.48
51099;BME280;37146;48.210;16.234;2023-05-29T08:09:58;98930.03;;;17.62;67.04
51099;BME280;37146;48.210;16.234;2023-05-29T08:12:23;98932.72;;;17.62;64.41
51099;BME280;37146;48.210;16.234;2023-05-29T08:14:48;98936.81;;;17.89;66.83
51099;BME280;37146;48.210;16.234;2023-05-29T08:17:14;98932.72;;;17.62;65.83
51099;BME280;37146;48.210;16.234;2023-05-29T08:19:39;98932.38;;;17.99;65.09
51099;BME280;37146;48.210;16.234;2023-05-29T08:22:04;98938.16;;;17.95;63.38
51099;BME280;37146;48.210;16.234;2023-05-29T08:24:30;98946.91;;;17.98;65.53
51099;BME280;37146;48.210;16.234;2023-05-29T08:26:55;98946.50;;;18.35;63.65
51099;BME280;37146;48.210;16.234;2023-05-29T08:29:21;98935.66;;;18.14;63.32
51099;BME280;37146;48.210;16.234;2023-05-29T08:31:46;98949.41;;;18.44;63.80
51099;BME280;37146;48.210;16.234;2023-05-29T08:34:11;98941.34;;;18.32;63.15
51099;BME280;37146;48.210;16.234;2023-05-29T08:36:37;98940.63;;;18.51;62.41
51099;BME280;37146;48.210;16.234;2023-05-29T08:39:02;98931.66;;;18.93;59.95
51099;BME280;37146;48.210;16.234;2023-05-29T08:41:37;98934.38;;;18.93;61.72
51099;BME280;37146;48.210;16.234;2023-05-29T08:44:06;98935.59;;;18.89;60.09
51099;BME280;37146;48.210;16.234;2023-05-29T08:46:32;98933.59;;;18.91;58.17
51099;BME280;37146;48.210;16.234;2023-05-29T08:48:58;98934.97;;;19.38;58.61
51099;BME280;37146;48.210;16.234;2023-05-29T08:51:25;98931.00;;;19.92;57.32
51099;BME280;37146;48.210;16.234;2023-05-29T08:53:54;98938.59;;;19.58;57.64
51099;BME280;37146;48.210;16.234;2023-05-29T08:56:29;98931.31;;;19.68;56.73
51099;BME280;37146;48.210;16.234;2023-05-29T08:58:55;98936.75;;;19.58;55.51
51099;BME280;37146;48.210;16.234;2023-05-29T09:01:21;98936.34;;;19.63;57.80
51099;BME280;37146;48.210;16.234;2023-05-29T09:03:47;98935.69;;;20.30;58.71
51099;BME280;37146;48.210;16.234;2023-05-29T09:06:12;98931.72;;;19.95;55.50
51099;BME280;37146;48.210;16.234;2023-05-29T09:08:37;98931.34;;;19.78;56.03
51099;BME280;37146;48.210;16.234;2023-05-29T09:11:03;98934.34;;;19.65;54.55
51099;BME280;37146;48.210;16.234;2023-05-29T09:13:28;98932.97;;;19.90;55.57
51099;BME280;37146;48.210;16.234;2023-05-29T09:15:57;98928.53;;;20.29;56.47
51099;BME280;37146;48.210;16.234;2023-05-29T09:18:23;98934.53;;;20.42;53.39
51099;BME280;37146;48.210;16.234;2023-05-29T09:20:48;98928.56;;;20.48;54.14
51099;BME280;37146;48.210;16.234;2023-05-29T09:23:14;98931.97;;;20.50;54.82
51099;BME280;37146;48.210;16.234;2023-05-29T09:25:40;98931.69;;;20.34;52.84
51099;BME280;37146;48.210;16.234;2023-05-29T09:28:06;98926.47;;;20.99;53.00
51099;BME280;37146;48.210;16.234;2023-05-29T09:30:34;98918.56;;;21.34;51.48
51099;BME280;37146;48.210;16.234;2023-05-29T09:33:00;98922.00;;;21.36;51.48
51099;BME280;37146;48.210;16.234;2023-05-29T09:35:26;98924.56;;;22.12;50.01
51099;BME280;37146;48.210;16.234;2023-05-29T09:37:52;98924.69;;;22.28;49.15
51099;BME280;37146;48.210;16.234;2023-05-29T09:40:17;98931.38;;;22.52;49.87
51099;BME280;37146;48.210;16.234;2023-05-29T09:42:42;98927.97;;;22.50;48.75
51099;BME280;37146;48.210;16.234;2023-05-29T09:45:08;98918.72;;;22.43;48.86
51099;BME280;37146;48.210;16.234;2023-05-29T09:47:33;98917.69;;;22.44;47.49
51099;BME280;37146;48.210;16.234;2023-05-29T09:50:00;98927.44;;;22.73;47.82
51099;BME280;37146;48.210;16.234;2023-05-29T09:52:26;98917.47;;;23.16;46.15
51099;BME280;37146;48.210;16.234;2023-05-29T09:54:55;98925.69;;;22.63;45.53
51099;BME280;37146;48.210;16.234;2023-05-29T09:57:21;98925.78;;;23.33;47.36
51099;BME280;37146;48.210;16.234;2023-05-29T09:59:48;98927.50;;;23.34;47.62
51099;BME280;37146;48.210;16.234;2023-05-29T10:02:16;98918.59;;;23.31;45.14
51099;BME280;37146;48.210;16.234;2023-05-29T10:04:41;98922.88;;;23.34;46.91
51099;BME280;37146;48.210;16.234;2023-05-29T10:07:20;98928.91;;;23.46;44.92
51099;BME280;37146;48.210;16.234;2023-05-29T10:09:50;98927.44;;;23.76;43.97
51099;BME280;37146;48.210;16.234;2023-05-29T10:12:19;98921.16;;;23.92;42.38
51099;BME280;37146;48.210;16.234;2023-05-29T10:14:46;98916.78;;;24.00;44.89
51099;BME280;37146;48.210;16.234;2023-05-29T10:17:12;98910.31;;;24.26;42.86
51099;BME280;37146;48.210;16.234;2023-05-29T10:19:38;98916.81;;;24.49;44.20
51099;BME280;37146;48.210;16.234;2023-05-29T10:22:04;98915.00;;;25.14;41.13
51099;BME280;37146;48.210;16.234;2023-05-29T10:24:31;98909.50;;;25.31;41.79
51099;BME280;37146;48.210;16.234;2023-05-29T10:26:56;98902.75;;;24.94;41.08
51099;BME280;37146;48.210;16.234;2023-05-29T10:32:05;98891.91;;;26.20;41.74
51099;BME280;37146;48.210;16.234;2023-05-29T10:37:09;98906.72;;;26.02;41.03
51099;BME280;37146;48.210;16.234;2023-05-29T10:39:37;98895.66;;;25.64;40.87
51099;BME280;37146;48.210;16.234;2023-05-29T10:42:02;98890.50;;;26.62;39.07
51099;BME280;37146;48.210;16.234;2023-05-29T10:44:47;98893.09;;;25.94;40.36
51099;BME280;37146;48.210;16.234;2023-05-29T10:47:12;98883.09;;;26.48;39.82
51099;BME280;37146;48.210;16.234;2023-05-29T10:49:50;98888.81;;;25.28;42.29
51099;BME280;37146;48.210;16.234;2023-05-29T10:52:18;98890.09;;;25.01;41.50
51099;BME280;37146;48.210;16.234;2023-05-29T10:54:49;98889.09;;;24.85;40.57
51099;BME280;37146;48.210;16.234;2023-05-29T10:57:15;98888.44;;;24.67;41.19
51099;BME280;37146;48.210;16.234;2023-05-29T10:59:40;98891.19;;;24.34;42.21
51099;BME280;37146;48.210;16.234;2023-05-29T11:02:06;98884.50;;;24.53;41.43
51099;BME280;37146;48.210;16.234;2023-05-29T11:04:31;98878.91;;;24.21;42.53
51099;BME280;37146;48.210;16.234;2023-05-29T11:06:57;98887.94;;;24.05;41.98
51099;BME280;37146;48.210;16.234;2023-05-29T11:12:10;98880.78;;;23.96;42.41
51099;BME280;37146;48.210;16.234;2023-05-29T11:14:52;98876.81;;;24.65;41.64
51099;BME280;37146;48.210;16.234;2023-05-29T11:20:02;98887.59;;;25.71;36.77
51099;BME280;37146;48.210;16.234;2023-05-29T11:22:40;98876.22;;;25.51;37.37
51099;BME280;37146;48.210;16.234;2023-05-29T11:25:13;98877.72;;;25.22;38.35
51099;BME280;37146;48.210;16.234;2023-05-29T11:27:38;98877.34;;;25.25;37.91
51099;BME280;37146;48.210;16.234;2023-05-29T11:30:04;98884.59;;;25.09;38.91
51099;BME280;37146;48.210;16.234;2023-05-29T11:32:30;98876.34;;;25.17;40.33
51099;BME280;37146;48.210;16.234;2023-05-29T11:34:59;98883.75;;;25.49;38.05
51099;BME280;37146;48.210;16.234;2023-05-29T11:37:27;98879.50;;;26.01;35.01
51099;BME280;37146;48.210;16.234;2023-05-29T11:39:52;98880.34;;;26.10;36.29
51099;BME280;37146;48.210;16.234;2023-05-29T11:42:18;98880.00;;;26.04;35.58
51099;BME280;37146;48.210;16.234;2023-05-29T11:44:43;98867.09;;;27.05;34.92
51099;BME280;37146;48.210;16.234;2023-05-29T11:47:08;98879.16;;;26.27;36.70
51099;BME280;37146;48.210;16.234;2023-05-29T11:49:34;98881.03;;;25.00;38.02
51099;BME280;37146;48.210;16.234;2023-05-29T11:52:09;98879.75;;;24.72;38.61
51099;BME280;37146;48.210;16.234;2023-05-29T11:54:35;98868.75;;;24.96;38.98
51099;BME280;37146;48.210;16.234;2023-05-29T11:57:00;98868.66;;;25.13;38.42
51099;BME280;37146;48.210;16.234;2023-05-29T11:59:29;98862.31;;;25.21;39.53
51099;BME280;37146;48.210;16.234;2023-05-29T12:01:55;98858.03;;;24.53;38.88
51099;BME280;37146;48.210;16.234;2023-05-29T12:04:20;98864.31;;;25.27;39.11
51099;BME280;37146;48.210;16.234;2023-05-29T12:06:45;98857.16;;;24.78;39.12
51099;BME280;37146;48.210;16.234;2023-05-29T12:09:22;98860.38;;;24.81;39.10
51099;BME280;37146;48.210;16.234;2023-05-29T12:11:49;98848.63;;;25.21;38.14
51099;BME280;37146;48.210;16.234;2023-05-29T12:14:14;98857.56;;;25.06;38.44
51099;BME280;37146;48.210;16.234;2023-05-29T12:16:39;98861.59;;;24.79;37.04
51099;BME280;37146;48.210;16.234;2023-05-29T12:19:05;98850.16;;;24.67;37.59
51099;BME280;37146;48.210;16.234;2023-05-29T12:21:30;98858.28;;;25.00;37.12
51099;BME280;37146;48.210;16.234;2023-05-29T12:23:55;98856.16;;;25.19;37.11
51099;BME280;37146;48.210;16.234;2023-05-29T12:26:24;98846.94;;;24.47;38.73
51099;BME280;37146;48.210;16.234;2023-05-29T12:28:50;98856.25;;;24.94;36.35
51099;BME280;37146;48.210;16.234;2023-05-29T12:31:29;98853.84;;;24.99;37.94
51099;BME280;37146;48.210;16.234;2023-05-29T12:33:59;98841.94;;;24.75;34.47
51099;BME280;37146;48.210;16.234;2023-05-29T12:36:25;98841.06;;;24.66;34.17
51099;BME280;37146;48.210;16.234;2023-05-29T12:38:51;98841.78;;;24.77;36.75
51099;BME280;37146;48.210;16.234;2023-05-29T12:41:26;98847.34;;;25.00;38.50
51099;BME280;37146;48.210;16.234;2023-05-29T12:43:57;98831.63;;;24.94;39.44
51099;BME280;37146;48.210;16.234;2023-05-29T12:46:24;98843.63;;;24.84;40.29
51099;BME280;37146;48.210;16.234;2023-05-29T12:48:52;98842.19;;;25.13;39.33
51099;BME280;37146;48.210;16.234;2023-05-29T12:51:22;98843.44;;;24.86;38.89
51099;BME280;37146;48.210;16.234;2023-05-29T12:53:47;98845.38;;;24.61;38.85
51099;BME280;37146;48.210;16.234;2023-05-29T12:56:13;98843.66;;;24.68;36.50
51099;BME280;37146;48.210;16.234;2023-05-29T12:58:38;98843.66;;;24.68;39.81
51099;BME280;37146;48.210;16.234;2023-05-29T13:01:03;98835.47;;;24.51;38.92
51099;BME280;37146;48.210;16.234;2023-05-29T13:03:28;98839.00;;;24.93;37.29
51099;BME280;37146;48.210;16.234;2023-05-29T13:05:54;98833.09;;;24.48;39.11